Time;durP1;ratioP1;P1;durP2;ratioP2;P2;SDS_P1;SDS_P2;PMS_P1;PMS_P2;Temp;Humidity;BMP_temperature;BMP_pressure;BME280_temperature;BME280_humidity;BME280_pressure;Samples;Min_cycle;Max_cycle;Signal;HPM_P1;HPM_P2
2022/11/19 00:02:11;;;;;;;0.90;0.80;;;14.10;99.90;;;14.24;73.35;93942.34;5000260;28;20457;-56
2022/11/19 00:04:39;;;;;;;1.30;0.80;;;14.10;99.90;;;14.21;73.07;93932.13;5007300;28;20568;-56
2022/11/19 00:07:06;;;;;;;1.63;0.70;;;14.10;99.90;;;14.21;72.88;93926.03;5008039;28;20513;-55
2022/11/19 00:09:33;;;;;;;0.80;0.70;;;14.10;99.90;;;14.20;73.17;93922.56;5007052;28;20477;-55
2022/11/19 00:14:45;;;;;;;0.80;0.63;;;14.10;99.90;;;14.20;72.78;93925.19;5002953;28;20491;-55
2022/11/19 00:17:14;;;;;;;1.67;0.80;;;14.10;99.90;;;14.18;72.43;93932.50;5005929;28;20445;-55
2022/11/19 00:19:41;;;;;;;1.00;0.70;;;14.00;99.90;;;14.15;72.18;93944.25;5004664;28;20513;-55
2022/11/19 00:22:08;;;;;;;1.20;0.50;;;14.00;99.90;;;14.15;72.02;93946.09;5004981;28;20862;-54
2022/11/19 00:24:36;;;;;;;0.80;0.60;;;14.00;99.90;;;14.12;72.08;93935.88;5001040;28;20485;-56
2022/11/19 03:05:43;;;;;;;1.20;0.60;;;12.40;99.90;;;12.39;73.54;94074.56;5097167;27;20581;-56
2022/11/19 03:08:10;;;;;;;1.67;0.67;;;12.40;99.90;;;12.43;73.57;94081.13;5082557;28;20464;-55
2022/11/19 03:10:42;;;;;;;1.20;0.60;;;12.40;99.90;;;12.46;73.56;94080.00;5059398;28;20447;-54
2022/11/19 03:18:45;;;;;;;1.37;0.70;;;12.40;99.90;;;12.52;73.56;94081.94;5058519;28;20450;-54
2022/11/19 03:21:16;;;;;;;3.37;0.90;;;12.50;99.90;;;12.52;73.66;94101.22;5057271;28;20506;-55
2022/11/19 03:23:45;;;;;;;1.20;1.10;;;12.40;99.90;;;12.51;73.73;94110.13;5058224;28;20475;-55
2022/11/19 03:26:17;;;;;;;1.33;1.23;;;12.40;99.90;;;12.50;73.67;94103.22;5060749;28;20455;-53
2022/11/19 03:28:45;;;;;;;2.00;1.87;;;12.40;99.90;;;12.50;74.07;94102.38;5059022;28;20533;-56
2022/11/19 03:31:12;;;;;;;4.80;3.47;;;12.40;99.90;;;12.50;74.13;94108.50;5057361;28;20459;-54
2022/11/19 03:33:41;;;;;;;8.70;3.63;;;12.40;99.90;;;12.50;74.45;94102.38;5060816;28;20841;-56
2022/11/19 03:36:11;;;;;;;4.50;4.10;;;12.40;99.90;;;12.51;74.59;94111.94;5060376;28;20451;-56
2022/11/19 03:38:42;;;;;;;4.60;4.10;;;12.40;99.90;;;12.51;74.54;94104.03;5060645;28;20537;-55
2022/11/19 03:41:10;;;;;;;5.20;4.20;;;12.40;99.90;;;12.52;74.75;94105.69;5059080;28;20447;-56
2022/11/19 03:43:39;;;;;;;5.20;3.97;;;12.40;99.90;;;12.52;74.63;94106.50;5062617;28;20540;-57
2022/11/19 03:46:09;;;;;;;4.70;3.87;;;12.40;99.90;;;12.53;74.88;94112.59;5060912;28;20902;-56
2022/11/19 03:48:36;;;;;;;9.30;3.87;;;12.40;99.90;;;12.54;74.48;94120.31;5061673;28;20482;-54
2022/11/19 03:51:07;;;;;;;7.03;4.30;;;12.40;99.90;;;12.52;74.99;94119.69;5061751;28;20450;-57
2022/11/19 03:53:34;;;;;;;5.00;4.20;;;12.40;99.90;;;12.51;74.65;94131.22;5062470;28;20494;-55
2022/11/19 03:56:04;;;;;;;6.30;3.53;;;12.40;99.90;;;12.50;74.94;94142.78;5060767;28;20548;-57
2022/11/19 03:58:37;;;;;;;5.00;3.80;;;12.40;99.90;;;12.52;74.68;94134.69;5062188;28;20862;-55
2022/11/19 04:01:04;;;;;;;17.13;4.83;;;12.40;99.90;;;12.52;74.74;94142.63;5058954;28;20493;-56
2022/11/19 04:03:31;;;;;;;7.87;4.77;;;12.40;99.90;;;12.52;75.25;94138.16;5061700;28;20486;-55
2022/11/19 04:05:58;;;;;;;5.03;3.60;;;12.40;99.90;;;12.52;75.01;94138.16;5052390;28;20451;-56
2022/11/19 04:08:26;;;;;;;4.00;3.70;;;12.40;99.90;;;12.52;74.89;94137.34;5048328;28;21014;-54
2022/11/19 04:10:53;;;;;;;8.30;3.97;;;12.40;99.90;;;12.53;74.82;94138.97;5048489;28;20451;-56
2022/11/19 04:13:21;;;;;;;3.93;3.20;;;12.40;99.90;;;12.53;74.80;94142.44;5047983;28;20463;-56
2022/11/19 04:15:49;;;;;;;4.00;3.30;;;12.40;99.90;;;12.53;74.69;94152.16;5048470;28;20460;-55
2022/11/19 04:18:16;;;;;;;6.97;4.07;;;12.40;99.90;;;12.52;74.82;94148.69;5048339;28;20463;-56
2022/11/19 04:20:44;;;;;;;5.10;3.67;;;12.40;99.90;;;12.52;74.79;94159.25;5049056;28;20456;-54
2022/11/19 04:23:11;;;;;;;7.50;4.00;;;12.50;99.90;;;12.53;75.15;94153.00;5046487;28;20463;-55
2022/11/19 04:25:40;;;;;;;5.13;3.37;;;12.40;99.90;;;12.54;74.89;94162.53;5048572;28;20455;-56
2022/11/19 04:28:07;;;;;;;6.83;4.53;;;12.40;99.90;;;12.50;74.92;94144.56;5047958;28;20452;-55
2022/11/19 04:30:36;;;;;;;5.10;4.03;;;12.40;99.90;;;12.52;74.96;94161.88;5044218;28;20781;-55
2022/11/19 04:33:03;;;;;;;4.73;3.60;;;12.40;99.90;;;12.53;75.06;94166.19;5042572;28;20456;-55
2022/11/19 04:35:31;;;;;;;8.70;3.97;;;12.40;99.90;;;12.55;75.03;94163.38;5048381;28;20500;-56
2022/11/19 04:37:58;;;;;;;3.67;3.30;;;12.50;99.90;;;12.56;74.67;94172.91;5047934;28;20471;-56
2022/11/19 04:40:25;;;;;;;4.20;3.80;;;12.50;99.90;;;12.55;75.05;94173.94;5047420;28;20866;-55
2022/11/19 04:42:52;;;;;;;5.73;3.67;;;12.50;99.90;;;12.54;75.07;94183.63;5047558;28;20464;-57
2022/11/19 04:45:20;;;;;;;4.70;3.40;;;12.50;99.90;;;12.57;74.95;94192.22;5048185;28;20476;-53
2022/11/19 04:47:48;;;;;;;4.67;4.20;;;12.50;99.90;;;12.58;75.16;94199.97;5047567;28;20979;-55
2022/11/19 04:50:16;;;;;;;5.00;3.67;;;12.50;99.90;;;12.59;75.06;94212.16;5047322;28;20648;-56
2022/11/19 04:52:43;;;;;;;5.83;3.43;;;12.50;99.90;;;12.61;74.74;94207.53;5047892;28;20816;-56
2022/11/19 04:55:10;;;;;;;3.83;3.53;;;12.50;99.90;;;12.60;74.95;94220.91;5047311;28;20502;-55
2022/11/19 04:57:38;;;;;;;4.13;3.80;;;12.50;99.90;;;12.63;74.77;94228.47;5047561;28;20448;-55
2022/11/19 05:00:07;;;;;;;8.07;4.40;;;12.50;99.90;;;12.61;74.88;94236.56;5046401;28;20483;-58
2022/11/19 05:02:34;;;;;;;6.97;3.83;;;12.50;99.90;;;12.63;74.98;94237.22;5046473;28;20521;-57
2022/11/19 05:05:03;;;;;;;5.40;4.20;;;12.50;99.90;;;12.63;74.41;94244.31;5047866;28;20545;-56
2022/11/19 05:07:30;;;;;;;6.43;4.57;;;12.50;99.90;;;12.61;74.71;94247.13;5046645;28;20509;-55
2022/11/19 05:09:57;;;;;;;8.90;4.97;;;12.50;99.90;;;12.60;74.62;94249.94;5047668;28;20471;-55
2022/11/19 05:12:25;;;;;;;8.83;5.07;;;12.50;99.90;;;12.60;74.76;94266.56;5046350;28;20467;-56
2022/11/19 05:14:52;;;;;;;11.90;6.73;;;12.50;99.90;;;12.62;75.02;94263.75;5047227;28;20557;-53
2022/11/19 05:17:19;;;;;;;12.83;7.73;;;12.50;99.90;;;12.61;74.86;94257.66;5045518;28;20517;-55
2022/11/19 05:19:47;;;;;;;14.50;7.47;;;12.50;99.90;;;12.61;74.74;94267.38;5043444;28;20480;-53
2022/11/19 05:22:15;;;;;;;5.43;4.57;;;12.50;99.90;;;12.63;74.79;94273.34;5046584;28;20820;-56
2022/11/19 05:24:43;;;;;;;3.90;3.50;;;12.50;99.90;;;12.61;74.78;94265.59;5047514;28;20548;-57
2022/11/19 05:27:10;;;;;;;6.07;3.33;;;12.50;99.90;;;12.62;74.59;94274.31;5047462;28;20447;-55
2022/11/19 05:29:37;;;;;;;8.13;3.47;;;12.50;99.90;;;12.61;74.04;94272.66;5047293;28;20475;-55
2022/11/19 05:32:05;;;;;;;4.20;2.50;;;12.50;99.90;;;12.59;73.96;94275.47;5045361;28;20808;-55
2022/11/19 05:34:32;;;;;;;2.93;2.70;;;12.50;99.90;;;12.58;73.83;94267.72;5046789;28;20495;-57
2022/11/19 05:36:59;;;;;;;6.10;3.00;;;12.50;99.90;;;12.59;73.76;94274.66;5046420;28;20455;-54
2022/11/19 05:39:28;;;;;;;4.70;2.60;;;12.50;99.90;;;12.60;73.70;94286.84;5046545;28;20585;-58
2022/11/19 05:41:55;;;;;;;6.30;1.93;;;12.50;99.90;;;12.63;73.80;94286.53;5044807;28;20467;-55
2022/11/19 05:44:23;;;;;;;3.97;2.67;;;12.50;99.90;;;12.66;73.82;94307.28;5046248;28;20471;-56
2022/11/19 05:46:50;;;;;;;2.63;2.43;;;12.50;99.90;;;12.69;73.87;94325.44;5047181;28;20968;-57
2022/11/19 05:49:17;;;;;;;2.90;2.57;;;12.50;99.90;;;12.72;73.65;94333.03;5046322;28;20483;-56
2022/11/19 05:51:46;;;;;;;5.47;3.10;;;12.60;99.90;;;12.75;73.54;94343.25;5044053;28;20455;-58
2022/11/19 05:54:13;;;;;;;5.33;4.20;;;12.60;99.90;;;12.75;73.17;94340.59;5046348;28;20503;-55
2022/11/19 05:56:42;;;;;;;9.70;4.80;;;12.60;99.90;;;12.69;73.44;94349.19;5046475;28;20471;-57
2022/11/19 05:59:09;;;;;;;6.00;4.77;;;12.60;99.90;;;12.63;73.69;94348.03;5046661;28;20471;-57
2022/11/19 06:01:36;;;;;;;8.63;5.77;;;12.60;99.90;;;12.60;73.97;94345.72;5043908;28;20501;-57
2022/11/19 06:04:03;;;;;;;6.40;5.50;;;12.50;99.90;;;12.60;74.10;94344.91;5045501;28;20476;-57
2022/11/19 06:06:31;;;;;;;9.57;6.43;;;12.50;99.90;;;12.61;74.12;94354.44;5042853;28;20859;-57
2022/11/19 06:08:58;;;;;;;14.30;9.60;;;12.50;99.90;;;12.63;74.10;94355.13;5044206;28;20510;-55
2022/11/19 06:14:11;;;;;;;10.93;7.07;;;12.50;99.90;;;12.67;74.16;94359.91;5046045;28;20626;-56
2022/11/19 06:16:39;;;;;;;8.07;6.73;;;12.60;99.90;;;12.86;74.36;94360.56;5045399;28;20891;-58
2022/11/19 06:19:06;;;;;;;4.70;4.40;;;12.80;99.90;;;13.38;74.18;94372.53;5046383;28;20467;-56
2022/11/19 06:21:33;;;;;;;5.43;4.23;;;13.10;99.90;;;14.16;73.40;94362.97;5045944;28;20475;-57
2022/11/19 06:24:00;;;;;;;4.67;3.13;;;13.80;99.90;;;15.08;71.59;94379.84;5045039;28;20479;-56
2022/11/19 06:26:28;;;;;;;3.10;2.80;;;14.70;99.90;;;15.99;69.00;94395.59;5040283;28;20455;-57
2022/11/19 06:28:56;;;;;;;3.33;3.13;;;15.60;99.90;;;16.81;67.15;94395.31;5042129;28;21069;-56
2022/11/19 06:31:25;;;;;;;2.90;2.70;;;16.50;99.90;;;17.51;66.04;94390.16;5041890;28;20456;-57
2022/11/19 06:33:53;;;;;;;6.33;4.47;;;17.20;99.90;;;18.13;64.27;94408.16;5041767;28;20480;-54
2022/11/19 06:36:20;;;;;;;11.70;6.97;;;17.80;99.90;;;18.83;62.85;94408.78;5041880;28;20440;-58
2022/11/19 06:38:47;;;;;;;12.03;7.47;;;18.50;99.90;;;19.60;61.66;94413.78;5040569;28;20476;-56
2022/11/19 06:41:14;;;;;;;24.57;7.37;;;19.30;99.90;;;20.34;60.18;94412.56;5045085;28;20459;-56
2022/11/19 06:43:42;;;;;;;8.70;6.80;;;20.10;99.40;;;21.07;58.70;94418.59;5041470;28;20475;-57
2022/11/19 06:46:09;;;;;;;10.17;7.40;;;20.80;98.70;;;21.72;57.49;94418.31;5044426;28;20550;-56
2022/11/19 06:48:38;;;;;;;7.87;5.57;;;21.60;97.70;;;22.37;55.80;94419.72;5044828;28;20514;-55
2022/11/19 06:51:06;;;;;;;6.23;5.20;;;22.30;96.40;;;22.97;52.72;94418.13;5043539;28;20525;-55
2022/11/19 06:53:33;;;;;;;7.43;4.90;;;22.90;92.60;;;23.50;48.94;94417.38;5044576;28;20476;-56
2022/11/19 06:56:01;;;;;;;5.10;4.57;;;23.50;87.80;;;23.94;49.88;94423.25;5044271;28;21019;-56
2022/11/19 06:58:29;;;;;;;13.50;7.20;;;23.90;87.50;;;24.32;49.56;94431.84;5043246;28;20447;-60
2022/11/19 07:00:56;;;;;;;13.03;8.27;;;24.30;86.50;;;24.54;49.10;94426.66;5044993;28;20475;-55
2022/11/19 07:03:24;;;;;;;9.97;7.57;;;24.50;83.60;;;24.75;48.59;94432.47;5044302;28;20570;-55
2022/11/19 07:05:57;;;;;;;12.93;7.90;;;24.80;82.00;;;25.09;47.33;94448.72;5026095;28;20459;-56
2022/11/19 07:08:24;;;;;;;8.97;6.90;;;25.00;81.10;;;25.40;47.46;94452.81;5028888;28;20469;-56
2022/11/19 07:10:51;;;;;;;8.97;6.80;;;25.30;79.70;;;25.75;46.28;94447.19;5032508;28;21004;-58
2022/11/19 07:13:19;;;;;;;11.80;6.50;;;25.60;77.50;;;26.07;45.07;94446.66;5031832;28;20844;-66
2022/11/19 07:15:46;;;;;;;12.80;6.37;;;25.90;74.90;;;26.29;45.00;94452.06;5033116;28;20506;-54
2022/11/19 07:18:13;;;;;;;6.60;6.00;;;26.10;73.90;;;26.57;44.77;94449.44;5035234;28;20466;-53
2022/11/19 07:20:40;;;;;;;6.10;5.20;;;26.30;73.00;;;26.86;43.79;94446.59;5030431;28;20478;-57
2022/11/19 07:23:12;;;;;;;7.17;4.77;;;26.50;71.10;;;26.94;43.34;94440.75;5037486;28;20459;-59
2022/11/19 07:25:39;;;;;;;5.10;4.57;;;26.50;69.70;;;26.65;43.37;94449.88;5030959;28;20488;-57
2022/11/19 07:28:06;;;;;;;10.80;5.57;;;26.40;68.60;;;26.42;43.59;94442.81;5037834;28;20456;-57
2022/11/19 07:30:34;;;;;;;4.97;4.57;;;26.30;67.60;;;26.34;43.01;94451.34;5035855;28;20486;-53
2022/11/19 07:33:01;;;;;;;8.67;3.90;;;26.00;67.00;;;25.89;43.66;94447.69;5039777;28;20456;-54
2022/11/19 07:35:28;;;;;;;4.47;4.07;;;25.70;66.80;;;25.28;43.81;94439.38;5034141;28;20494;-54
2022/11/19 07:37:55;;;;;;;4.57;4.13;;;25.20;66.40;;;24.77;44.67;94439.25;5035482;28;20510;-56
2022/11/19 07:40:24;;;;;;;3.40;3.20;;;24.80;67.30;;;24.72;45.14;94441.03;5036880;28;21057;-55
2022/11/19 07:42:52;;;;;;;5.87;3.50;;;24.70;68.70;;;25.03;45.09;94443.22;5044986;28;20483;-54
2022/11/19 07:45:20;;;;;;;4.00;3.77;;;24.70;69.40;;;25.46;44.37;94440.25;5038584;28;21023;-57
2022/11/19 07:47:48;;;;;;;4.10;3.90;;;24.90;69.50;;;25.68;44.08;94432.25;5033862;28;20484;-56
2022/11/19 07:50:16;;;;;;;4.50;3.17;;;25.20;68.50;;;25.81;43.29;94436.50;5041289;28;20487;-56
2022/11/19 07:52:44;;;;;;;3.53;2.90;;;25.30;67.20;;;26.02;43.18;94432.28;5037415;28;20928;-55
2022/11/19 07:55:11;;;;;;;8.60;3.57;;;25.60;66.90;;;26.25;42.89;94447.44;5036840;28;20502;-55
2022/11/19 07:57:40;;;;;;;3.23;2.77;;;25.80;66.20;;;26.60;42.75;94454.34;5039536;28;20865;-56
2022/11/19 08:00:09;;;;;;;5.20;3.23;;;26.10;66.10;;;26.78;42.46;94458.66;5040525;28;20502;-57
2022/11/19 08:02:37;;;;;;;5.03;2.70;;;26.20;65.10;;;26.95;42.18;94477.47;5037139;28;20487;-55
2022/11/19 08:05:05;;;;;;;3.73;3.43;;;26.50;64.40;;;27.13;41.49;94469.06;5038890;28;20482;-56
2022/11/19 08:07:32;;;;;;;4.13;3.27;;;26.60;64.00;;;27.39;41.16;94477.47;5037236;28;20467;-58
2022/11/19 08:10:00;;;;;;;4.43;3.40;;;26.90;63.30;;;27.73;40.55;94469.09;5044617;28;20479;-55
2022/11/19 08:12:28;;;;;;;3.50;3.20;;;27.20;61.80;;;27.94;40.75;94472.00;5042030;28;20459;-56
2022/11/19 08:14:57;;;;;;;3.33;3.13;;;27.40;61.60;;;27.94;39.76;94472.00;5040167;28;20501;-56
2022/11/19 08:20:10;;;;;;;4.50;3.33;;;27.50;60.20;;;27.84;39.84;94473.53;5043979;28;20477;-52
2022/11/19 08:22:39;;;;;;;3.50;3.30;;;27.50;59.70;;;27.98;39.63;94476.66;5035530;28;20470;-56
2022/11/19 08:25:07;;;;;;;5.03;2.83;;;27.60;59.60;;;28.31;39.73;94479.31;5041224;28;20483;-53
2022/11/19 08:27:35;;;;;;;3.50;3.20;;;27.80;59.50;;;28.63;39.02;94473.84;5037713;28;20572;-56
2022/11/19 08:30:05;;;;;;;3.13;2.90;;;28.10;58.80;;;28.93;39.23;94478.56;5038618;28;21009;-57
2022/11/19 08:32:32;;;;;;;2.97;2.77;;;28.40;58.30;;;29.25;38.55;94469.50;5032069;28;20516;-56
2022/11/19 08:35:00;;;;;;;2.87;2.67;;;28.60;57.50;;;29.48;37.31;94483.63;5035460;28;20498;-56
2022/11/19 08:37:27;;;;;;;4.83;3.33;;;28.90;56.70;;;29.63;36.99;94477.44;5032072;28;20589;-54
2022/11/19 08:39:55;;;;;;;2.80;2.60;;;29.00;55.70;;;29.82;36.98;94475.03;5035297;28;20475;-57
2022/11/19 08:45:12;;;;;;;1.77;1.63;;;29.40;54.60;;;30.27;36.19;94483.41;5032358;28;20530;-53
2022/11/19 08:47:39;;;;;;;2.30;2.10;;;29.70;53.90;;;30.44;35.68;94485.88;5029636;28;20440;-56
2022/11/19 08:50:07;;;;;;;2.30;1.90;;;29.80;52.90;;;30.57;35.16;94488.03;5036367;28;20885;-54
2022/11/19 08:52:36;;;;;;;2.37;2.27;;;30.00;52.50;;;30.73;34.58;94492.31;5035029;28;20436;-57
2022/11/19 08:55:04;;;;;;;3.60;2.23;;;30.10;52.20;;;30.90;34.26;94485.75;5034007;28;20472;-56
2022/11/19 08:57:32;;;;;;;3.87;1.40;;;30.20;51.50;;;30.97;35.02;94489.00;5039139;28;20853;-52
2022/11/19 08:59:59;;;;;;;2.03;1.93;;;30.30;51.00;;;31.04;34.01;94484.06;5031149;28;20503;-55
2022/11/19 09:02:29;;;;;;;1.63;1.53;;;30.40;51.00;;;31.12;33.87;94493.56;5038739;28;20209;-56
2022/11/19 09:04:56;;;;;;;1.87;1.77;;;30.50;50.10;;;31.25;33.63;94503.81;5033679;28;20491;-55
2022/11/19 09:07:24;;;;;;;2.90;2.60;;;30.60;50.00;;;31.33;33.40;94499.72;5040372;28;20484;-55
2022/11/19 09:09:52;;;;;;;2.87;1.80;;;30.70;49.50;;;31.44;33.66;94501.28;5032338;28;20493;-54
2022/11/19 09:12:19;;;;;;;2.60;2.40;;;30.80;49.50;;;31.62;33.21;94505.28;5039964;28;20464;-57
2022/11/19 09:14:47;;;;;;;2.80;2.60;;;31.00;49.20;;;31.78;33.16;94503.28;5029322;28;20510;-55
2022/11/19 09:17:14;;;;;;;2.17;2.07;;;31.10;48.40;;;31.85;32.65;94500.22;5034510;28;21003;-56
2022/11/19 09:19:43;;;;;;;1.80;1.70;;;31.20;48.20;;;31.85;32.48;94502.94;5039138;28;20228;-56
2022/11/19 09:22:10;;;;;;;2.73;2.53;;;31.30;48.00;;;31.92;32.72;94495.28;5034938;28;20220;-55
2022/11/19 09:24:38;;;;;;;2.10;2.00;;;31.30;47.80;;;32.08;32.48;94489.72;5035678;28;20739;-54
2022/11/19 09:27:05;;;;;;;1.90;1.80;;;31.40;47.70;;;32.23;32.63;94488.81;5034556;28;20231;-57
2022/11/19 09:29:32;;;;;;;2.40;2.13;;;31.60;47.60;;;32.34;32.02;94474.00;5039710;28;20213;-54
2022/11/19 09:32:00;;;;;;;2.50;2.07;;;31.70;46.90;;;32.48;31.82;94480.38;5031394;28;20725;-55
2022/11/19 09:34:27;;;;;;;2.40;2.20;;;31.80;47.40;;;32.60;31.87;94476.47;5043041;28;20225;-54
2022/11/19 09:36:57;;;;;;;2.10;1.97;;;31.90;46.30;;;32.68;31.13;94473.16;5034546;28;20213;-55
2022/11/19 09:39:24;;;;;;;2.80;1.87;;;32.00;46.20;;;32.76;31.07;94463.53;5039136;28;20222;-52
2022/11/19 09:41:55;;;;;;;2.87;2.67;;;32.10;45.60;;;32.79;31.14;94461.03;5036221;28;20222;-55
2022/11/19 09:44:48;;;;;;;8.83;2.60;;;32.20;45.90;;;32.83;29.96;94448.47;5037153;28;20217;-56
2022/11/19 09:47:23;;;;;;;6.40;3.57;;;32.10;45.30;;;32.70;31.14;94443.69;5041760;28;20211;-53
2022/11/19 09:49:54;;;;;;;3.50;3.00;;;32.00;45.10;;;32.17;31.34;94431.69;5042644;28;20320;-54
2022/11/19 09:52:23;;;;;;;6.40;2.70;;;31.70;44.70;;;31.37;31.77;94424.69;5044152;28;20197;-57
2022/11/19 09:54:52;;;;;;;3.40;3.10;;;31.10;45.30;;;30.65;32.37;94418.78;5039174;28;20231;-55
2022/11/19 09:57:26;;;;;;;5.63;4.10;;;30.50;45.90;;;30.02;32.95;94407.25;5041535;28;20673;-55
2022/11/19 09:59:53;;;;;;;4.70;3.60;;;29.90;46.60;;;29.52;34.08;94421.59;5043704;28;20468;-56
2022/11/19 10:02:22;;;;;;;4.13;3.77;;;29.40;47.10;;;29.18;33.91;94416.66;5043500;28;20464;-56
2022/11/19 10:04:50;;;;;;;6.27;3.50;;;28.90;48.00;;;29.29;35.07;94415.59;5043354;28;20475;-55
2022/11/19 10:07:24;;;;;;;3.73;3.03;;;28.80;49.00;;;29.51;34.64;94418.06;5043502;28;20455;-56
2022/11/19 10:10:01;;;;;;;3.93;3.47;;;28.90;49.40;;;29.62;34.33;94414.28;5042343;28;20568;-54
2022/11/19 10:12:45;;;;;;;3.60;3.40;;;29.00;48.90;;;29.69;33.71;94403.16;5039777;28;20458;-54
2022/11/19 10:15:18;;;;;;;4.53;4.23;;;29.10;48.50;;;29.71;34.02;94397.47;5043220;28;20567;-54
2022/11/19 10:17:58;;;;;;;5.40;4.77;;;29.30;48.40;;;29.84;34.17;94400.47;5041436;28;20822;-56
2022/11/19 10:20:49;;;;;;;5.93;5.40;;;29.40;48.30;;;30.15;32.26;94402.34;5042489;28;20553;-56
2022/11/19 10:23:19;;;;;;;5.87;5.10;;;29.60;47.10;;;30.10;33.05;94413.19;5043142;28;20943;-56
2022/11/19 10:25:47;;;;;;;8.23;4.20;;;29.50;47.70;;;29.75;33.24;94418.34;5040150;28;20503;-57
2022/11/19 10:28:16;;;;;;;4.97;4.43;;;29.40;47.60;;;29.52;33.51;94422.41;5044679;28;20538;-54
2022/11/19 10:30:48;;;;;;;10.77;4.80;;;29.20;47.90;;;29.30;34.48;94415.34;5040752;28;20479;-55
2022/11/19 10:33:18;;;;;;;13.20;4.53;;;28.90;48.40;;;29.19;34.48;94408.25;5045763;28;20447;-56
2022/11/19 10:35:48;;;;;;;3.70;3.40;;;28.80;48.50;;;29.26;33.94;94400.69;5039678;28;20443;-56
2022/11/19 10:38:22;;;;;;;7.10;3.43;;;28.80;48.40;;;29.32;33.69;94401.50;5044532;28;20459;-56
2022/11/19 10:40:51;;;;;;;15.13;4.90;;;28.80;48.50;;;29.34;33.83;94391.22;5043115;28;20511;-56
2022/11/19 10:43:25;;;;;;;5.60;4.30;;;28.80;48.40;;;29.21;34.40;94386.34;5046518;28;20954;-57
2022/11/19 10:45:52;;;;;;;4.20;3.87;;;28.80;48.40;;;29.17;34.41;94391.44;5045843;28;20482;-55
2022/11/19 10:48:20;;;;;;;7.53;3.70;;;28.80;48.10;;;29.12;33.61;94391.44;5045382;28;20455;-55
2022/11/19 10:50:48;;;;;;;4.53;3.30;;;28.70;48.00;;;29.10;34.29;94380.06;5045895;28;20508;-55
2022/11/19 10:53:17;;;;;;;5.30;3.83;;;28.60;48.00;;;28.81;34.28;94380.53;5045322;28;20486;-54
2022/11/19 10:55:47;;;;;;;4.80;3.47;;;28.50;48.00;;;28.26;34.78;94375.41;5042136;28;20458;-55
2022/11/19 10:58:18;;;;;;;5.90;3.97;;;28.10;48.50;;;27.76;35.32;94379.41;5045380;28;20538;-56
2022/11/19 11:00:46;;;;;;;5.53;3.67;;;27.70;49.40;;;27.18;36.17;94379.19;5045516;28;20796;-55
2022/11/19 11:03:20;;;;;;;7.57;4.43;;;27.20;49.90;;;26.57;37.28;94380.16;5042492;28;20455;-57
2022/11/19 11:05:58;;;;;;;5.97;4.40;;;26.60;50.70;;;25.93;37.98;94386.84;5045911;28;20859;-55
2022/11/19 11:08:25;;;;;;;12.23;4.37;;;26.00;51.70;;;25.55;38.39;94385.75;5042400;28;20963;-55
2022/11/19 11:10:54;;;;;;;13.47;4.80;;;25.50;52.70;;;25.31;38.77;94381.56;5041392;28;21065;-57
2022/11/19 11:16:23;;;;;;;6.43;5.30;;;25.10;54.40;;;25.59;39.30;94372.59;5045395;28;20477;-56
2022/11/19 11:18:50;;;;;;;5.47;4.20;;;25.20;54.60;;;25.80;39.18;94372.91;5048756;28;20467;-56
2022/11/19 11:21:33;;;;;;;8.67;5.20;;;25.30;54.30;;;25.96;38.90;94361.28;5046901;28;20447;-55
2022/11/19 11:24:01;;;;;;;4.73;4.33;;;25.40;54.20;;;25.97;39.07;94365.63;5045910;28;20865;-55
2022/11/19 11:26:32;;;;;;;10.90;5.53;;;25.50;54.20;;;26.01;39.61;94356.00;5050661;28;20492;-56
2022/11/19 11:29:01;;;;;;;7.20;6.50;;;25.60;54.70;;;25.97;39.27;94349.44;5047227;28;20468;-56
2022/11/19 11:31:38;;;;;;;9.50;5.30;;;25.60;54.70;;;25.69;39.36;94355.78;5049454;28;20443;-56
2022/11/19 11:34:06;;;;;;;10.63;5.70;;;25.40;54.70;;;25.37;39.91;94351.78;5049702;28;20479;-56
2022/11/19 11:36:35;;;;;;;9.67;5.77;;;25.10;55.10;;;24.96;40.58;94350.28;5049563;28;20455;-55
2022/11/19 11:39:04;;;;;;;8.73;5.30;;;24.70;55.40;;;24.43;40.84;94341.47;5049416;28;20467;-57
2022/11/19 11:41:38;;;;;;;10.87;4.40;;;24.30;55.90;;;23.92;41.62;94344.75;5049224;28;20828;-54
2022/11/19 11:44:08;;;;;;;8.47;4.20;;;23.80;56.60;;;23.48;42.87;94346.97;5047389;28;20835;-56
2022/11/19 11:46:43;;;;;;;3.70;3.40;;;23.40;57.30;;;23.17;42.83;94340.88;5048760;28;20498;-56
2022/11/19 11:49:27;;;;;;;9.90;3.80;;;23.00;58.00;;;23.00;44.14;94355.97;5048919;28;20474;-56
2022/11/19 11:52:16;;;;;;;8.60;3.87;;;22.80;58.70;;;22.85;44.36;94359.91;5046955;28;20439;-53
2022/11/19 11:54:59;;;;;;;5.13;3.90;;;22.60;59.40;;;22.66;44.54;94350.28;5045418;28;20476;-56
2022/11/19 11:57:30;;;;;;;4.90;3.40;;;22.40;59.50;;;22.45;44.41;94357.78;5048569;28;20447;-57
2022/11/19 11:59:57;;;;;;;4.03;3.63;;;22.20;59.80;;;22.24;44.75;94356.34;5048953;28;20874;-56
2022/11/19 12:02:28;;;;;;;3.33;2.90;;;22.00;60.10;;;22.03;45.53;94354.97;5048559;28;20456;-54
2022/11/19 12:04:56;;;;;;;5.93;3.67;;;21.80;60.60;;;21.87;45.34;94352.88;5045805;28;20509;-56
2022/11/19 12:08:00;;;;;;;7.90;3.63;;;21.60;61.30;;;21.71;46.08;94360.47;5048406;28;21056;-56
2022/11/19 12:10:33;;;;;;;6.20;2.70;;;21.40;61.40;;;21.62;46.34;94345.72;5047193;28;20479;-56
2022/11/19 12:13:38;;;;;;;3.40;2.60;;;21.30;62.20;;;21.55;46.87;94348.47;5048784;28;20448;-54
2022/11/19 12:16:08;;;;;;;3.67;2.90;;;21.20;62.90;;;21.49;46.85;94349.34;5017644;28;20474;-55
2022/11/19 12:18:42;;;;;;;8.53;3.40;;;21.10;63.10;;;21.39;46.75;94333.75;5049928;28;21003;-56
2022/11/19 12:21:10;;;;;;;8.73;3.33;;;21.10;63.40;;;21.32;46.66;94333.00;5048367;28;20456;-53
2022/11/19 12:23:59;;;;;;;8.83;4.00;;;21.00;63.80;;;21.29;47.36;94333.47;5047891;28;20486;-53
2022/11/19 12:26:32;;;;;;;9.03;4.40;;;20.90;64.00;;;21.27;47.55;94343.53;5044749;28;21106;-56
2022/11/19 12:29:11;;;;;;;3.47;3.20;;;20.90;64.50;;;21.23;47.43;94343.16;5047908;28;20471;-56
2022/11/19 12:31:56;;;;;;;8.50;3.93;;;20.90;64.60;;;21.18;47.66;94340.34;5044342;28;20447;-54
2022/11/19 12:35:00;;;;;;;8.40;4.93;;;20.80;65.00;;;21.13;48.15;94346.34;5046898;28;20472;-56
2022/11/19 12:37:47;;;;;;;11.20;6.50;;;20.80;65.40;;;21.09;48.07;94347.81;5043847;28;20537;-56
2022/11/19 12:40:24;;;;;;;7.20;3.77;;;20.70;65.70;;;21.02;48.13;94340.88;5046618;28;20548;-56
2022/11/19 12:42:59;;;;;;;17.37;5.07;;;20.70;65.90;;;20.90;48.07;94343.44;5044253;28;20507;-54
2022/11/19 12:45:35;;;;;;;11.23;3.10;;;20.60;65.90;;;20.76;48.89;94342.72;5047928;28;20995;-54
2022/11/19 12:48:28;;;;;;;6.33;3.70;;;20.50;66.50;;;20.62;49.16;94341.13;5048096;28;20444;-56
2022/11/19 12:50:57;;;;;;;3.13;2.83;;;20.30;67.00;;;20.50;49.21;94339.13;5046020;28;20459;-55
2022/11/19 12:53:36;;;;;;;8.23;4.30;;;20.20;66.90;;;20.43;49.55;94349.03;5047050;28;20861;-56
2022/11/19 12:56:12;;;;;;;10.80;4.50;;;20.10;67.90;;;20.32;49.51;94353.19;5043864;28;21032;-55
2022/11/19 12:58:44;;;;;;;4.07;3.70;;;20.00;68.10;;;20.24;49.84;94334.75;5045352;28;20475;-55
2022/11/19 13:01:16;;;;;;;6.23;3.80;;;19.90;69.20;;;20.11;50.47;94310.78;5047265;28;20452;-54
2022/11/19 13:03:50;;;;;;;10.00;5.80;;;19.80;69.40;;;20.08;50.45;94324.53;5046160;28;20487;-55
2022/11/19 13:06:21;;;;;;;16.93;6.73;;;19.80;70.00;;;19.99;50.98;94338.13;5043858;28;20491;-55
2022/11/19 13:08:49;;;;;;;16.43;5.90;;;19.70;70.80;;;19.94;51.01;94340.63;5047353;28;20502;-55
2022/11/19 13:11:20;;;;;;;7.97;5.20;;;19.60;71.60;;;19.91;51.31;94343.72;5047605;28;20455;-57
2022/11/19 13:13:48;;;;;;;7.40;4.03;;;19.60;71.90;;;19.88;51.29;94342.28;5047247;28;20480;-54
2022/11/19 13:16:19;;;;;;;8.87;5.40;;;19.60;72.20;;;19.84;51.28;94348.25;5046359;28;21198;-57
2022/11/19 13:18:48;;;;;;;7.33;4.70;;;19.50;72.70;;;19.80;52.37;94336.34;5047167;28;20467;-55
2022/11/19 13:21:25;;;;;;;10.83;4.50;;;19.50;73.80;;;19.74;52.31;94346.00;5046780;28;20451;-56
2022/11/19 13:23:52;;;;;;;7.80;4.20;;;19.40;73.60;;;19.66;52.68;94339.03;5044207;28;20474;-55
2022/11/19 13:26:21;;;;;;;7.97;3.00;;;19.30;74.50;;;19.60;52.71;94345.22;5046259;28;21019;-55
2022/11/19 13:28:52;;;;;;;8.40;4.77;;;19.30;75.10;;;19.55;52.66;94358.38;5046769;28;20633;-55